Indianapolis, IN (46247)

6:14 AM EDT on March 30, 2017 (GMT -0400)
Mile Square | | Change Station

Elev 715 ft 39.77 °N, 86.15 °W | Updated 11 minutes ago

Mostly Cloudy
Mostly Cloudy
53.6 °F
Feels Like 53.6 °F
N
3.1
Wind Variable Wind from East
Gusts 8.1 mph

Today
High -- | Low -- °F
--% Chance of Precip.
Yesterday
High -- | Low -- °F
Precip. -- in
Pressure 29.79 in
Visibility 10.0 miles
Clouds Few 8000 ft
Scattered Clouds 13000 ft
Mostly Cloudy 23000 ft
Dew Point 46 °F
Humidity 75%
Rainfall 1.08 in
Snow Depth Not available.
7:31 AM 8:07 PM
Waxing Crescent, 7% visible
METAR KIND 300954Z 10010KT 10SM FEW080 SCT130 BKN230 12/07 A2979 RMK AO2 SLP086 T01170072
Pressure 29.79 in
Visibility 10.0 miles
Clouds Few 8000 ft
Scattered Clouds 13000 ft
Mostly Cloudy 23000 ft
Dew Point 46 °F
Humidity 75%
Rainfall 1.08 in
Snow Depth Not available.
7:31 AM 8:07 PM
Waxing Crescent, 7% visible
METAR KIND 300954Z 10010KT 10SM FEW080 SCT130 BKN230 12/07 A2979 RMK AO2 SLP086 T01170072

Get Severe Weather Alerts

Thanks for signing up!

Be on the lookout for a verification email in your inbox.

You'll start receiving the daily forecast at 8 AM.

×

10-Day Weather Forecast

Almanac

Astronomy

Mar. 30, 2017 Rise Set
Actual Time
Civil Twilight
Nautical Twilight
Astronomical Twilight
Moon
Length of Visible Light
Length of Day
Tomorrow will be .
, % of the Moon is Illuminated

Today's Extremes

State Highs State Lows

Community

WunderPhotos

Upload Photos

1,962,540 photos uploaded!

WunderBlog® & News

Nearby

Air Quality

  Air Quality AQ Index Pollutant
Not available.

Snow Depth

Station Depth Elevation

Earthquake Activity

City Distance Mag. Time & Date
Minimum magnitude displayed is 2.5.

Earthquake Activity

City Distance Mag. Time & Date
Minimum magnitude displayed is 2.5.

Coastal Water Temperatures

Place Temperature

Stations

Nearby Weather Stations

Station Location Temp. Windchill Dew Point Humidity Wind Precip. Elev Updated Type
                   

Watches & Warnings

There are currently no watches in effect.